FIN3WR EFHK-EKCH
Flight info
| Callsign | FIN3WR |
|---|---|
| Flight time | 1h 27m |
| Altitude | 36000 |
| Route | NUNTO Y369 REKDO DCT KOSKA DCT TOKSI N872 ERNOV |
| Aircraft | A321/M-SDE1E2E3FGIJ1M1RWXYZ/LB1 |
Departure
| Time | 2026-05-04 04:45 |
|---|---|
| Airport | Helsinki Vantaa Airport (EFHK) |
Arrival
| Time | 2026-05-04 06:13 |
|---|---|
| Airport | Copenhagen Kastrup Airport (EKCH) |
| Time | Latitude | Longitude | Altitude | Speed | Heading |
|---|---|---|---|---|---|
| 2026-05-04 03:34 | 60.31947 | 24.96929 | 164 ft | 0 kts | 242° |
| 2026-05-04 04:35 | 60.31948 | 24.96933 | 163 ft | 2 kts | 242° |
| 2026-05-04 04:36 | 60.31960 | 24.96980 | 163 ft | 4 kts | 246° |
| 2026-05-04 04:36 | 60.31967 | 24.97028 | 163 ft | 4 kts | 279° |
| 2026-05-04 04:36 | 60.31961 | 24.97054 | 163 ft | 0 kts | 333° |
| 2026-05-04 04:38 | 60.31964 | 24.97051 | 163 ft | 1 kts | 333° |
| 2026-05-04 04:39 | 60.31992 | 24.97022 | 163 ft | 5 kts | 333° |
| 2026-05-04 04:39 | 60.32021 | 24.96991 | 163 ft | 4 kts | 333° |
| 2026-05-04 04:39 | 60.32071 | 24.96936 | 163 ft | 13 kts | 330° |
| 2026-05-04 04:39 | 60.32155 | 24.96838 | 164 ft | 14 kts | 330° |
| 2026-05-04 04:40 | 60.32231 | 24.96749 | 165 ft | 12 kts | 330° |
| 2026-05-04 04:40 | 60.32323 | 24.96644 | 169 ft | 18 kts | 330° |
| 2026-05-04 04:40 | 60.32431 | 24.96518 | 176 ft | 16 kts | 330° |
| 2026-05-04 04:40 | 60.32529 | 24.96403 | 174 ft | 17 kts | 330° |
| 2026-05-04 04:41 | 60.32630 | 24.96286 | 172 ft | 17 kts | 330° |
| 2026-05-04 04:41 | 60.32736 | 24.96161 | 172 ft | 20 kts | 329° |
| 2026-05-04 04:41 | 60.32858 | 24.96018 | 174 ft | 19 kts | 331° |
| 2026-05-04 04:41 | 60.32968 | 24.95892 | 177 ft | 17 kts | 330° |
| 2026-05-04 04:42 | 60.33053 | 24.95791 | 181 ft | 13 kts | 329° |
| 2026-05-04 04:42 | 60.33132 | 24.95657 | 180 ft | 18 kts | 317° |
| 2026-05-04 04:42 | 60.33200 | 24.95513 | 182 ft | 11 kts | 298° |
| 2026-05-04 04:42 | 60.33190 | 24.95364 | 180 ft | 12 kts | 238° |
| 2026-05-04 04:43 | 60.33133 | 24.95221 | 177 ft | 14 kts | 230° |
| 2026-05-04 04:43 | 60.33106 | 24.95048 | 178 ft | 14 kts | 271° |
| 2026-05-04 04:43 | 60.33113 | 24.94797 | 180 ft | 19 kts | 272° |
| 2026-05-04 04:43 | 60.33118 | 24.94569 | 186 ft | 14 kts | 272° |
| 2026-05-04 04:44 | 60.33121 | 24.94440 | 188 ft | 5 kts | 270° |
| 2026-05-04 04:44 | 60.33109 | 24.94380 | 187 ft | 5 kts | 235° |
| 2026-05-04 04:44 | 60.33034 | 24.94214 | 190 ft | 41 kts | 227° |
| 2026-05-04 04:44 | 60.32674 | 24.93422 | 179 ft | 109 kts | 227° |
| 2026-05-04 04:45 | 60.32039 | 24.92022 | 157 ft | 160 kts | 227° |
| 2026-05-04 04:45 | 60.31258 | 24.90316 | 658 ft | 163 kts | 228° |
| 2026-05-04 04:45 | 60.30502 | 24.88596 | 1324 ft | 164 kts | 235° |
| 2026-05-04 04:47 | 60.29110 | 24.71610 | 3935 ft | 250 kts | 246° |
| 2026-05-04 04:47 | 60.28434 | 24.68363 | 4751 ft | 252 kts | 248° |
| 2026-05-04 04:47 | 60.27771 | 24.65080 | 5595 ft | 253 kts | 248° |
| 2026-05-04 04:47 | 60.27105 | 24.61787 | 6413 ft | 254 kts | 248° |
| 2026-05-04 04:48 | 60.26434 | 24.58482 | 7190 ft | 255 kts | 248° |
| 2026-05-04 04:49 | 60.23570 | 24.45352 | 10112 ft | 269 kts | 244° |
| 2026-05-04 04:49 | 60.22645 | 24.41900 | 10252 ft | 292 kts | 243° |
| 2026-05-04 04:49 | 60.21654 | 24.38201 | 10494 ft | 308 kts | 243° |
| 2026-05-04 04:49 | 60.20625 | 24.34375 | 11082 ft | 313 kts | 243° |
| 2026-05-04 04:50 | 60.19579 | 24.30502 | 11754 ft | 316 kts | 243° |
| 2026-05-04 04:50 | 60.18526 | 24.26617 | 12435 ft | 318 kts | 243° |
| 2026-05-04 04:50 | 60.17463 | 24.22703 | 13106 ft | 320 kts | 243° |
| 2026-05-04 04:50 | 60.16389 | 24.18754 | 13740 ft | 322 kts | 243° |
| 2026-05-04 04:51 | 60.15310 | 24.14790 | 14304 ft | 324 kts | 243° |
| 2026-05-04 04:51 | 60.14225 | 24.10809 | 14852 ft | 326 kts | 243° |
| 2026-05-04 04:51 | 60.13131 | 24.06795 | 15399 ft | 329 kts | 243° |
| 2026-05-04 04:51 | 60.12032 | 24.02768 | 15942 ft | 331 kts | 243° |
| 2026-05-04 04:52 | 60.10922 | 23.98711 | 16465 ft | 333 kts | 243° |
| 2026-05-04 04:52 | 60.09806 | 23.94638 | 16990 ft | 335 kts | 243° |
| 2026-05-04 04:52 | 60.08683 | 23.90541 | 17540 ft | 336 kts | 243° |
| 2026-05-04 04:52 | 60.07564 | 23.86424 | 18069 ft | 337 kts | 244° |
| 2026-05-04 04:53 | 60.06462 | 23.82263 | 18481 ft | 339 kts | 244° |
| 2026-05-04 04:53 | 60.05370 | 23.78068 | 18892 ft | 341 kts | 244° |
| 2026-05-04 04:53 | 60.04275 | 23.73839 | 19308 ft | 343 kts | 244° |
| 2026-05-04 04:53 | 60.03170 | 23.69581 | 19739 ft | 345 kts | 244° |
| 2026-05-04 04:54 | 60.02057 | 23.65321 | 20161 ft | 347 kts | 244° |
| 2026-05-04 04:54 | 60.00928 | 23.61025 | 20580 ft | 349 kts | 244° |
| 2026-05-04 04:54 | 59.99794 | 23.56719 | 20989 ft | 351 kts | 244° |
| 2026-05-04 04:54 | 59.98651 | 23.52395 | 21402 ft | 353 kts | 244° |
| 2026-05-04 04:55 | 59.97512 | 23.48104 | 21808 ft | 355 kts | 244° |
| 2026-05-04 04:55 | 59.96348 | 23.43732 | 22221 ft | 357 kts | 244° |
| 2026-05-04 04:55 | 59.95181 | 23.39347 | 22635 ft | 359 kts | 244° |
| 2026-05-04 04:55 | 59.94002 | 23.34929 | 23051 ft | 362 kts | 244° |
| 2026-05-04 04:56 | 59.92814 | 23.30490 | 23457 ft | 364 kts | 243° |
| 2026-05-04 04:56 | 59.91617 | 23.26025 | 23801 ft | 366 kts | 243° |
| 2026-05-04 04:56 | 59.90416 | 23.21545 | 24163 ft | 367 kts | 243° |
| 2026-05-04 04:56 | 59.89205 | 23.17050 | 24540 ft | 369 kts | 243° |
| 2026-05-04 04:57 | 59.87987 | 23.12541 | 24881 ft | 371 kts | 243° |
| 2026-05-04 04:57 | 59.87158 | 23.09479 | 25095 ft | 373 kts | 243° |
| 2026-05-04 04:57 | 59.85924 | 23.04921 | 25416 ft | 375 kts | 243° |
| 2026-05-04 04:57 | 59.84687 | 23.00350 | 25756 ft | 377 kts | 243° |
| 2026-05-04 04:58 | 59.83456 | 22.95812 | 26092 ft | 378 kts | 243° |
| 2026-05-04 04:58 | 59.82202 | 22.91200 | 26502 ft | 379 kts | 243° |
| 2026-05-04 04:58 | 59.80942 | 22.86580 | 26883 ft | 380 kts | 243° |
| 2026-05-04 04:58 | 59.79676 | 22.81958 | 27247 ft | 381 kts | 243° |
| 2026-05-04 04:59 | 59.78404 | 22.77325 | 27572 ft | 383 kts | 243° |
| 2026-05-04 04:59 | 59.77127 | 22.72666 | 27903 ft | 385 kts | 243° |
| 2026-05-04 04:59 | 59.75847 | 22.67996 | 28223 ft | 386 kts | 243° |
| 2026-05-04 04:59 | 59.74561 | 22.63307 | 28516 ft | 388 kts | 243° |
| 2026-05-04 05:00 | 59.73268 | 22.58602 | 28795 ft | 389 kts | 243° |
| 2026-05-04 05:00 | 59.71967 | 22.53890 | 29053 ft | 390 kts | 243° |
| 2026-05-04 05:00 | 59.69338 | 22.44428 | 29531 ft | 393 kts | 243° |
| 2026-05-04 05:01 | 59.68018 | 22.39688 | 29745 ft | 394 kts | 243° |
| 2026-05-04 05:01 | 59.66691 | 22.34926 | 29933 ft | 395 kts | 243° |
| 2026-05-04 05:01 | 59.65361 | 22.30162 | 30153 ft | 395 kts | 242° |
| 2026-05-04 05:01 | 59.64033 | 22.25415 | 30434 ft | 394 kts | 242° |
| 2026-05-04 05:02 | 59.62707 | 22.20693 | 30705 ft | 392 kts | 242° |
| 2026-05-04 05:02 | 59.61380 | 22.15988 | 30978 ft | 391 kts | 242° |
| 2026-05-04 05:02 | 59.60059 | 22.11313 | 31260 ft | 390 kts | 242° |
| 2026-05-04 05:02 | 59.58741 | 22.06650 | 31543 ft | 388 kts | 242° |
| 2026-05-04 05:03 | 59.57428 | 22.02002 | 31826 ft | 387 kts | 242° |
| 2026-05-04 05:03 | 59.56134 | 21.97435 | 32148 ft | 385 kts | 242° |
| 2026-05-04 05:04 | 59.52247 | 21.83756 | 33126 ft | 378 kts | 243° |
| 2026-05-04 05:04 | 59.50961 | 21.79240 | 33362 ft | 377 kts | 242° |
| 2026-05-04 05:04 | 59.49675 | 21.74741 | 33584 ft | 377 kts | 242° |
| 2026-05-04 05:06 | 59.40593 | 21.43286 | 34793 ft | 379 kts | 242° |
| 2026-05-04 05:06 | 59.39286 | 21.38775 | 34945 ft | 380 kts | 242° |
| 2026-05-04 05:06 | 59.37979 | 21.34270 | 35089 ft | 380 kts | 242° |
| 2026-05-04 05:07 | 59.36664 | 21.29757 | 35233 ft | 381 kts | 242° |
| 2026-05-04 05:07 | 59.35347 | 21.25249 | 35377 ft | 381 kts | 242° |
| 2026-05-04 05:07 | 59.34026 | 21.20734 | 35523 ft | 382 kts | 242° |
| 2026-05-04 05:09 | 59.23453 | 20.84963 | 35772 ft | 378 kts | 241° |
| 2026-05-04 05:09 | 59.22132 | 20.80522 | 35772 ft | 378 kts | 241° |
| 2026-05-04 05:10 | 59.19486 | 20.71654 | 35775 ft | 378 kts | 241° |
| 2026-05-04 05:10 | 59.16895 | 20.62729 | 35778 ft | 378 kts | 244° |
| 2026-05-04 05:11 | 59.14545 | 20.53557 | 35783 ft | 378 kts | 245° |
| 2026-05-04 05:11 | 59.12242 | 20.44356 | 35754 ft | 378 kts | 244° |
| 2026-05-04 05:12 | 59.09882 | 20.35201 | 35767 ft | 379 kts | 244° |
| 2026-05-04 05:12 | 59.07484 | 20.26069 | 35775 ft | 379 kts | 244° |
| 2026-05-04 05:13 | 59.05077 | 20.16946 | 35776 ft | 379 kts | 244° |
| 2026-05-04 05:13 | 59.02670 | 20.07830 | 35810 ft | 379 kts | 243° |
| 2026-05-04 05:14 | 59.00261 | 19.98734 | 35808 ft | 379 kts | 243° |
| 2026-05-04 05:14 | 58.97855 | 19.89707 | 35803 ft | 378 kts | 243° |
| 2026-05-04 05:15 | 58.95433 | 19.80651 | 35800 ft | 378 kts | 243° |
| 2026-05-04 05:15 | 58.93001 | 19.71591 | 35761 ft | 378 kts | 243° |
| 2026-05-04 05:16 | 58.90561 | 19.62562 | 35769 ft | 379 kts | 243° |
| 2026-05-04 05:16 | 58.88120 | 19.53521 | 35772 ft | 379 kts | 243° |
| 2026-05-04 05:17 | 58.85672 | 19.44500 | 35773 ft | 379 kts | 243° |
| 2026-05-04 05:17 | 58.83229 | 19.35529 | 35785 ft | 379 kts | 243° |
| 2026-05-04 05:18 | 58.80759 | 19.26502 | 35827 ft | 379 kts | 242° |
| 2026-05-04 05:18 | 58.78284 | 19.17508 | 35797 ft | 380 kts | 242° |
| 2026-05-04 05:19 | 58.75799 | 19.08523 | 35793 ft | 380 kts | 242° |
| 2026-05-04 05:19 | 58.73310 | 18.99533 | 35767 ft | 380 kts | 242° |
| 2026-05-04 05:20 | 58.70828 | 18.90590 | 35768 ft | 381 kts | 242° |
| 2026-05-04 05:20 | 58.68319 | 18.81606 | 35773 ft | 381 kts | 242° |
| 2026-05-04 05:21 | 58.65801 | 18.72627 | 35774 ft | 381 kts | 242° |
| 2026-05-04 05:21 | 58.63272 | 18.63658 | 35776 ft | 382 kts | 242° |
| 2026-05-04 05:22 | 58.60741 | 18.54705 | 35775 ft | 382 kts | 242° |
| 2026-05-04 05:22 | 58.58208 | 18.45766 | 35777 ft | 382 kts | 242° |
| 2026-05-04 05:23 | 58.55668 | 18.36836 | 35750 ft | 382 kts | 241° |
| 2026-05-04 05:23 | 58.53135 | 18.27969 | 35750 ft | 382 kts | 241° |
| 2026-05-04 05:24 | 58.50577 | 18.19061 | 35763 ft | 382 kts | 241° |
| 2026-05-04 05:24 | 58.48019 | 18.10166 | 35765 ft | 382 kts | 241° |
| 2026-05-04 05:25 | 58.45449 | 18.01281 | 35769 ft | 382 kts | 241° |
| 2026-05-04 05:25 | 58.42871 | 17.92404 | 35773 ft | 382 kts | 241° |
| 2026-05-04 05:26 | 58.40289 | 17.83549 | 35768 ft | 382 kts | 241° |
| 2026-05-04 05:26 | 58.37701 | 17.74704 | 35773 ft | 382 kts | 241° |
| 2026-05-04 05:28 | 58.27274 | 17.39398 | 35780 ft | 383 kts | 240° |
| 2026-05-04 05:29 | 58.24650 | 17.30583 | 35773 ft | 383 kts | 240° |
| 2026-05-04 05:29 | 58.22020 | 17.21791 | 35779 ft | 383 kts | 240° |
| 2026-05-04 05:31 | 58.11441 | 16.86783 | 35766 ft | 384 kts | 240° |
| 2026-05-04 05:32 | 58.08767 | 16.78025 | 35802 ft | 384 kts | 239° |
| 2026-05-04 05:33 | 58.04747 | 16.64897 | 35780 ft | 385 kts | 239° |
| 2026-05-04 05:33 | 58.02056 | 16.56139 | 35779 ft | 385 kts | 239° |
| 2026-05-04 05:34 | 57.99358 | 16.47414 | 35767 ft | 385 kts | 239° |
| 2026-05-04 05:34 | 57.96647 | 16.38686 | 35752 ft | 386 kts | 239° |
| 2026-05-04 05:35 | 57.93933 | 16.29972 | 35743 ft | 386 kts | 239° |
| 2026-05-04 05:35 | 57.91207 | 16.21252 | 35750 ft | 387 kts | 239° |
| 2026-05-04 05:36 | 57.88488 | 16.12587 | 35761 ft | 387 kts | 239° |
| 2026-05-04 05:36 | 57.85748 | 16.03875 | 35768 ft | 387 kts | 239° |
| 2026-05-04 05:37 | 57.82996 | 15.95161 | 35784 ft | 388 kts | 239° |
| 2026-05-04 05:37 | 57.80236 | 15.86457 | 35767 ft | 389 kts | 239° |
| 2026-05-04 05:38 | 57.76078 | 15.73386 | 35766 ft | 389 kts | 239° |
| 2026-05-04 05:38 | 57.73294 | 15.64678 | 35770 ft | 389 kts | 239° |
| 2026-05-04 05:39 | 57.69100 | 15.51647 | 35768 ft | 390 kts | 239° |
| 2026-05-04 05:40 | 57.64897 | 15.38630 | 35783 ft | 390 kts | 238° |
| 2026-05-04 05:40 | 57.62098 | 15.30026 | 35773 ft | 390 kts | 238° |
| 2026-05-04 05:41 | 57.59275 | 15.21379 | 35813 ft | 390 kts | 238° |
| 2026-05-04 05:41 | 57.56927 | 15.14189 | 35802 ft | 391 kts | 238° |
| 2026-05-04 05:42 | 57.54088 | 15.05551 | 35769 ft | 391 kts | 238° |
| 2026-05-04 05:42 | 57.51236 | 14.96905 | 35768 ft | 392 kts | 238° |
| 2026-05-04 05:43 | 57.48380 | 14.88270 | 35776 ft | 392 kts | 238° |
| 2026-05-04 05:45 | 57.36893 | 14.53799 | 35786 ft | 393 kts | 238° |
| 2026-05-04 05:47 | 57.25264 | 14.19459 | 35786 ft | 395 kts | 238° |
| 2026-05-04 05:47 | 57.22357 | 14.10941 | 35787 ft | 395 kts | 238° |
| 2026-05-04 05:48 | 57.19420 | 14.02365 | 35571 ft | 399 kts | 238° |
| 2026-05-04 05:48 | 57.17938 | 13.98050 | 35284 ft | 397 kts | 238° |
| 2026-05-04 05:48 | 57.16428 | 13.93786 | 35035 ft | 398 kts | 233° |
| 2026-05-04 05:49 | 57.14602 | 13.89959 | 34754 ft | 399 kts | 224° |
| 2026-05-04 05:49 | 57.12444 | 13.86739 | 34528 ft | 400 kts | 219° |
| 2026-05-04 05:49 | 57.10223 | 13.83662 | 34290 ft | 400 kts | 219° |
| 2026-05-04 05:49 | 57.08007 | 13.80586 | 34059 ft | 399 kts | 219° |
| 2026-05-04 05:51 | 56.92261 | 13.58726 | 28124 ft | 410 kts | 219° |
| 2026-05-04 05:51 | 56.90009 | 13.55624 | 27609 ft | 401 kts | 219° |
| 2026-05-04 05:52 | 56.87815 | 13.52608 | 27016 ft | 397 kts | 219° |
| 2026-05-04 05:52 | 56.85587 | 13.49550 | 26391 ft | 393 kts | 219° |
| 2026-05-04 05:52 | 56.83436 | 13.46601 | 25797 ft | 390 kts | 219° |
| 2026-05-04 05:52 | 56.81269 | 13.43638 | 25191 ft | 387 kts | 219° |
| 2026-05-04 05:53 | 56.79094 | 13.40666 | 24595 ft | 384 kts | 219° |
| 2026-05-04 05:54 | 56.64492 | 13.20775 | 20732 ft | 365 kts | 219° |
| 2026-05-04 05:55 | 56.62488 | 13.18059 | 20265 ft | 363 kts | 219° |
| 2026-05-04 05:55 | 56.60471 | 13.15329 | 19809 ft | 361 kts | 219° |
| 2026-05-04 05:55 | 56.58456 | 13.12612 | 19348 ft | 359 kts | 219° |
| 2026-05-04 05:55 | 56.56454 | 13.09917 | 18902 ft | 357 kts | 219° |
| 2026-05-04 05:56 | 56.54464 | 13.07246 | 18450 ft | 356 kts | 219° |
| 2026-05-04 05:56 | 56.52478 | 13.04582 | 17960 ft | 354 kts | 219° |
| 2026-05-04 05:56 | 56.50503 | 13.01931 | 17481 ft | 352 kts | 219° |
| 2026-05-04 05:56 | 56.48538 | 12.99299 | 17010 ft | 350 kts | 219° |
| 2026-05-04 05:57 | 56.46589 | 12.96692 | 16543 ft | 348 kts | 219° |
| 2026-05-04 05:57 | 56.44652 | 12.94104 | 16059 ft | 345 kts | 219° |
| 2026-05-04 05:57 | 56.42726 | 12.91534 | 15561 ft | 343 kts | 220° |
| 2026-05-04 05:57 | 56.40809 | 12.88998 | 15125 ft | 339 kts | 220° |
| 2026-05-04 05:58 | 56.38917 | 12.86496 | 14568 ft | 336 kts | 220° |
| 2026-05-04 05:58 | 56.37042 | 12.84010 | 13987 ft | 333 kts | 220° |
| 2026-05-04 05:58 | 56.35177 | 12.81530 | 13418 ft | 331 kts | 220° |
| 2026-05-04 05:58 | 56.33328 | 12.79077 | 12804 ft | 329 kts | 220° |
| 2026-05-04 05:59 | 56.31490 | 12.76640 | 12184 ft | 327 kts | 220° |
| 2026-05-04 05:59 | 56.29657 | 12.74211 | 11579 ft | 326 kts | 220° |
| 2026-05-04 05:59 | 56.27836 | 12.71802 | 10975 ft | 324 kts | 219° |
| 2026-05-04 05:59 | 56.26042 | 12.69432 | 10675 ft | 314 kts | 219° |
| 2026-05-04 06:00 | 56.24323 | 12.67167 | 10580 ft | 298 kts | 220° |
| 2026-05-04 06:00 | 56.22688 | 12.65020 | 10457 ft | 285 kts | 220° |
| 2026-05-04 06:00 | 56.21120 | 12.62966 | 10282 ft | 274 kts | 220° |
| 2026-05-04 06:00 | 56.19591 | 12.60961 | 9921 ft | 271 kts | 220° |
| 2026-05-04 06:01 | 56.18074 | 12.58971 | 9539 ft | 268 kts | 221° |
| 2026-05-04 06:01 | 56.16475 | 12.57298 | 9125 ft | 272 kts | 207° |
| 2026-05-04 06:03 | 56.03821 | 12.64547 | 7063 ft | 288 kts | 154° |
| 2026-05-04 06:03 | 56.02090 | 12.66357 | 6805 ft | 288 kts | 154° |
| 2026-05-04 06:05 | 55.90094 | 12.78784 | 5035 ft | 283 kts | 153° |
| 2026-05-04 06:05 | 55.86705 | 12.82281 | 4295 ft | 280 kts | 153° |
| 2026-05-04 06:05 | 55.85026 | 12.84007 | 3883 ft | 278 kts | 153° |
| 2026-05-04 06:06 | 55.83351 | 12.85727 | 3480 ft | 277 kts | 153° |
| 2026-05-04 06:06 | 55.81716 | 12.87406 | 3337 ft | 265 kts | 153° |
| 2026-05-04 06:06 | 55.80138 | 12.88965 | 3207 ft | 253 kts | 161° |
| 2026-05-04 06:06 | 55.78483 | 12.89544 | 3091 ft | 236 kts | 188° |
| 2026-05-04 06:07 | 55.76946 | 12.88880 | 3004 ft | 223 kts | 212° |
| 2026-05-04 06:07 | 55.75730 | 12.87322 | 3023 ft | 208 kts | 227° |
| 2026-05-04 06:07 | 55.74668 | 12.85657 | 3011 ft | 201 kts | 227° |
| 2026-05-04 06:07 | 55.73623 | 12.84015 | 2911 ft | 200 kts | 227° |
| 2026-05-04 06:08 | 55.72584 | 12.82390 | 2680 ft | 199 kts | 226° |
| 2026-05-04 06:08 | 55.71544 | 12.80766 | 2423 ft | 200 kts | 226° |
| 2026-05-04 06:08 | 55.70501 | 12.79138 | 2153 ft | 200 kts | 226° |
| 2026-05-04 06:08 | 55.69462 | 12.77522 | 1890 ft | 195 kts | 227° |
| 2026-05-04 06:09 | 55.68464 | 12.75971 | 1618 ft | 185 kts | 227° |
| 2026-05-04 06:09 | 55.67541 | 12.74538 | 1388 ft | 167 kts | 227° |
| 2026-05-04 06:11 | 55.62391 | 12.66532 | 47 ft | 131 kts | 223° |
| 2026-05-04 06:11 | 55.61749 | 12.65529 | 17 ft | 110 kts | 221° |
| 2026-05-04 06:13 | 55.60779 | 12.63605 | 17 ft | 10 kts | 322° |
| 2026-05-04 06:14 | 55.61186 | 12.64004 | 17 ft | 15 kts | 33° |
| 2026-05-04 06:14 | 55.61262 | 12.64093 | 18 ft | 12 kts | 33° |
| 2026-05-04 06:15 | 55.61337 | 12.64179 | 17 ft | 15 kts | 33° |
| 2026-05-04 06:15 | 55.61416 | 12.64269 | 17 ft | 11 kts | 33° |
| 2026-05-04 06:15 | 55.61472 | 12.64334 | 19 ft | 9 kts | 33° |
| 2026-05-04 06:15 | 55.61520 | 12.64390 | 17 ft | 8 kts | 33° |
| 2026-05-04 06:16 | 55.61570 | 12.64448 | 17 ft | 10 kts | 33° |
| 2026-05-04 06:16 | 55.61636 | 12.64523 | 17 ft | 13 kts | 33° |
| 2026-05-04 06:16 | 55.61723 | 12.64623 | 18 ft | 17 kts | 33° |
| 2026-05-04 06:16 | 55.61821 | 12.64733 | 17 ft | 15 kts | 32° |
| 2026-05-04 06:17 | 55.61901 | 12.64828 | 19 ft | 13 kts | 33° |
| 2026-05-04 06:17 | 55.61977 | 12.64913 | 17 ft | 12 kts | 33° |
| 2026-05-04 06:17 | 55.62045 | 12.64992 | 20 ft | 12 kts | 33° |
| 2026-05-04 06:17 | 55.62125 | 12.65085 | 18 ft | 15 kts | 34° |
| 2026-05-04 06:18 | 55.62207 | 12.65168 | 17 ft | 11 kts | 12° |
| 2026-05-04 06:18 | 55.62262 | 12.65108 | 17 ft | 11 kts | 303° |
| 2026-05-04 06:18 | 55.62316 | 12.64960 | 17 ft | 17 kts | 303° |
| 2026-05-04 06:20 | 55.62748 | 12.63931 | 17 ft | 11 kts | 27° |
| 2026-05-04 06:20 | 55.62817 | 12.64028 | 17 ft | 12 kts | 55° |
| 2026-05-04 06:21 | 55.62810 | 12.64222 | 18 ft | 0 kts | 123° |